createdAt,value
2018-02-19T00:00:16.798Z,92.94
2018-02-19T00:01:16.851Z,92.85
2018-02-19T00:03:09.858Z,94.08
2018-02-19T00:04:09.875Z,93.99
2018-02-19T00:06:02.848Z,93.99
2018-02-19T00:07:02.903Z,93.80
2018-02-19T00:08:55.904Z,93.89
2018-02-19T00:09:55.928Z,94.18
2018-02-19T00:11:48.898Z,94.37
2018-02-19T00:12:48.951Z,93.80
2018-02-19T00:14:41.945Z,94.08
2018-02-19T00:15:41.976Z,94.08
2018-02-19T00:17:34.947Z,94.56
2018-02-19T00:18:35.000Z,94.93
2018-02-19T00:20:27.992Z,93.61
2018-02-19T00:21:28.027Z,93.70
2018-02-19T00:23:21.005Z,94.56
2018-02-19T00:24:21.049Z,94.08
2018-02-19T00:26:14.043Z,94.37
2018-02-19T00:27:14.078Z,94.56
2018-02-19T00:29:07.051Z,93.70
2018-02-19T00:30:07.106Z,94.18
2018-02-19T00:32:00.101Z,93.51
2018-02-19T00:33:00.134Z,94.18
2018-02-19T00:34:53.105Z,93.70
2018-02-19T00:35:53.159Z,94.18
2018-02-19T00:37:46.156Z,93.80
2018-02-19T00:38:46.183Z,93.89
2018-02-19T00:40:39.155Z,93.80
2018-02-19T00:41:39.208Z,93.80
2018-02-19T00:43:32.201Z,93.89
2018-02-19T00:44:32.233Z,93.89
2018-02-19T00:46:25.226Z,93.42
2018-02-19T00:47:25.260Z,94.18
2018-02-19T00:49:18.240Z,93.23
2018-02-19T00:50:18.292Z,93.42
2018-02-19T00:52:11.288Z,92.94
2018-02-19T00:53:11.320Z,92.94
2018-02-19T00:55:04.291Z,92.94
2018-02-19T00:56:04.343Z,92.66
2018-02-19T00:57:57.344Z,92.57
2018-02-19T00:58:57.374Z,92.66
2018-02-19T01:00:50.352Z,92.76
2018-02-19T01:01:50.400Z,92.66
2018-02-19T01:03:43.400Z,92.66
2018-02-19T01:04:43.430Z,92.66
2018-02-19T01:06:36.402Z,92.66
2018-02-19T01:07:36.455Z,92.66
2018-02-19T01:09:29.447Z,92.85
2018-02-19T01:10:29.478Z,92.57
2018-02-19T01:12:22.452Z,92.66
2018-02-19T01:13:22.505Z,92.85
2018-02-19T01:15:15.501Z,92.10
2018-02-19T01:16:15.529Z,92.19
2018-02-19T01:18:08.499Z,92.94
2018-02-19T01:19:08.553Z,92.94
2018-02-19T01:21:01.549Z,91.81
2018-02-19T01:22:01.581Z,92.29
2018-02-19T01:23:54.579Z,92.29
2018-02-19T01:24:54.613Z,92.10
2018-02-19T01:26:47.584Z,91.72
2018-02-19T01:27:47.638Z,92.19
2018-02-19T01:29:40.630Z,92.10
2018-02-19T01:30:40.662Z,92.19
2018-02-19T01:32:33.635Z,92.19
2018-02-19T01:33:33.685Z,92.19
2018-02-19T01:35:26.680Z,91.53
2018-02-19T01:36:26.712Z,91.72
2018-02-19T01:38:19.687Z,92.19
2018-02-19T01:39:19.737Z,92.10
2018-02-19T01:41:12.739Z,91.72
2018-02-19T01:42:12.769Z,92.19
2018-02-19T01:44:05.736Z,91.43
2018-02-19T01:45:05.791Z,91.62
2018-02-19T01:46:58.786Z,91.34
2018-02-19T01:47:58.818Z,91.24
2018-02-19T01:49:51.786Z,91.43
2018-02-19T01:50:51.839Z,91.72
2018-02-19T01:52:44.832Z,92.10
2018-02-19T01:53:44.864Z,91.53
2018-02-19T01:55:37.857Z,92.19
2018-02-19T01:56:37.888Z,91.53
2018-02-19T01:58:30.861Z,91.81
2018-02-19T01:59:30.912Z,91.91
2018-02-19T02:01:23.905Z,92.76
2018-02-19T02:02:23.937Z,92.66
2018-02-19T02:04:16.908Z,92.00
2018-02-19T02:05:16.961Z,92.00
2018-02-19T02:07:09.986Z,92.57
2018-02-19T02:08:09.989Z,93.32
2018-02-19T02:10:02.967Z,92.57
2018-02-19T02:11:03.012Z,92.66
2018-02-19T02:12:56.004Z,92.76
2018-02-19T02:13:56.037Z,93.04
2018-02-19T02:15:49.012Z,92.00
2018-02-19T02:16:49.064Z,91.72
2018-02-19T02:18:42.058Z,91.53
2018-02-19T02:19:42.092Z,91.62
2018-02-19T02:21:35.090Z,91.43
2018-02-19T02:22:35.116Z,91.43
2018-02-19T02:24:28.088Z,91.91
2018-02-19T02:25:28.142Z,92.10
2018-02-19T02:27:21.134Z,91.81
2018-02-19T02:28:21.168Z,91.15
2018-02-19T02:30:14.139Z,91.24
2018-02-19T02:31:14.189Z,91.05
2018-02-19T02:33:07.187Z,91.43
2018-02-19T02:34:07.215Z,91.81
2018-02-19T02:36:00.188Z,90.96
2018-02-19T02:37:00.241Z,92.00
2018-02-19T02:38:53.235Z,91.72
2018-02-19T02:39:53.269Z,91.34
2018-02-19T02:41:46.244Z,90.96
2018-02-19T02:42:46.299Z,90.96
2018-02-19T02:44:39.292Z,90.96
2018-02-19T02:45:39.328Z,91.15
2018-02-19T02:47:32.341Z,90.39
2018-02-19T02:48:32.348Z,90.11
2018-02-19T02:50:25.328Z,89.73
2018-02-19T02:51:25.372Z,89.64
2018-02-19T02:53:18.389Z,89.73
2018-02-19T02:54:18.406Z,89.64
2018-02-19T02:56:11.403Z,89.92
2018-02-19T02:57:11.428Z,90.20
2018-02-19T02:59:04.423Z,90.49
2018-02-19T03:00:04.452Z,90.11
2018-02-19T03:01:57.423Z,89.45
2018-02-19T03:02:57.476Z,89.64
2018-02-19T03:04:50.468Z,89.36
2018-02-19T03:05:50.500Z,89.07
2018-02-19T03:07:43.472Z,89.73
2018-02-19T03:08:43.524Z,89.92
2018-02-19T03:10:36.516Z,89.73
2018-02-19T03:11:36.552Z,89.83
2018-02-19T03:13:29.520Z,89.83
2018-02-19T03:14:29.570Z,89.83
2018-02-19T03:16:22.574Z,89.54
2018-02-19T03:17:22.603Z,89.45
2018-02-19T03:19:15.598Z,89.64
2018-02-19T03:20:15.627Z,89.26
2018-02-19T03:22:08.612Z,89.17
2018-02-19T03:23:08.657Z,89.45
2018-02-19T03:25:01.658Z,89.17
2018-02-19T03:26:01.682Z,89.26
2018-02-19T03:27:54.653Z,88.79
2018-02-19T03:28:54.706Z,88.41
2018-02-19T03:30:47.707Z,88.03
2018-02-19T03:31:47.732Z,88.50
2018-02-19T03:33:40.706Z,88.41
2018-02-19T03:34:40.761Z,88.69
2018-02-19T03:36:33.754Z,88.88
2018-02-19T03:37:33.786Z,88.79
2018-02-19T03:39:26.756Z,87.93
2018-02-19T03:40:26.965Z,87.93
2018-02-19T03:42:19.808Z,88.31
2018-02-19T03:43:19.832Z,88.41
2018-02-19T03:45:12.807Z,88.60
2018-02-19T03:46:12.856Z,88.60
2018-02-19T03:48:05.854Z,88.79
2018-02-19T03:49:05.885Z,88.69
2018-02-19T03:50:58.861Z,88.03
2018-02-19T03:51:58.920Z,88.03
2018-02-19T03:53:51.907Z,88.31
2018-02-19T03:54:51.939Z,87.46
2018-02-19T03:56:44.908Z,87.46
2018-02-19T03:57:44.962Z,86.99
2018-02-19T03:59:37.958Z,86.33
2018-02-19T04:00:37.988Z,86.52
2018-02-19T04:02:30.992Z,86.61
2018-02-19T04:03:31.018Z,86.99
2018-02-19T04:05:23.989Z,87.46
2018-02-19T04:06:24.039Z,88.12
2018-02-19T04:08:17.034Z,87.84
2018-02-19T04:09:17.066Z,87.74
2018-02-19T04:11:10.038Z,88.79
2018-02-19T04:12:10.128Z,88.88
2018-02-19T04:14:03.091Z,88.98
2018-02-19T04:15:03.117Z,88.98
2018-02-19T04:16:56.086Z,89.26
2018-02-19T04:17:56.139Z,89.54
2018-02-19T04:19:49.138Z,88.93
2018-02-19T04:20:49.167Z,88.93
2018-02-19T04:22:42.146Z,89.02
2018-02-19T04:23:42.190Z,88.83
2018-02-19T04:25:35.185Z,88.64
2018-02-19T04:26:35.215Z,88.93
2018-02-19T04:28:28.187Z,89.31
2018-02-19T04:29:28.237Z,88.45
2018-02-19T04:31:21.498Z,88.36
2018-02-19T04:32:21.527Z,88.83
2018-02-19T04:34:14.537Z,88.64
2018-02-19T04:35:14.557Z,89.02
2018-02-19T04:37:07.525Z,89.69
2018-02-19T04:38:07.577Z,89.59
2018-02-19T04:40:00.570Z,89.40
2018-02-19T04:41:00.608Z,89.50
2018-02-19T04:42:53.576Z,89.59
2018-02-19T04:43:53.628Z,89.21
2018-02-19T04:45:46.635Z,89.78
2018-02-19T04:46:46.664Z,89.31
2018-02-19T04:48:39.674Z,89.87
2018-02-19T04:49:39.691Z,89.31
2018-02-19T04:51:33.214Z,89.69
2018-02-19T04:52:33.216Z,88.93
2018-02-19T04:54:26.189Z,89.31
2018-02-19T04:55:26.241Z,89.40
2018-02-19T04:57:19.235Z,89.12
2018-02-19T04:58:19.266Z,89.12
2018-02-19T05:00:12.236Z,88.55
2018-02-19T05:01:12.288Z,88.26
2018-02-19T05:03:05.337Z,88.36
2018-02-19T05:04:05.314Z,88.17
2018-02-19T05:05:58.288Z,88.36
2018-02-19T05:06:58.335Z,88.36
2018-02-19T05:08:51.332Z,88.64
2018-02-19T05:09:51.361Z,88.36
2018-02-19T05:11:44.340Z,88.36
2018-02-19T05:12:44.394Z,88.17
2018-02-19T05:14:37.384Z,88.45
2018-02-19T05:15:37.415Z,88.26
2018-02-19T05:17:30.434Z,88.36
2018-02-19T05:18:30.447Z,88.45
2018-02-19T05:20:23.416Z,88.45
2018-02-19T05:21:23.470Z,88.36
2018-02-19T05:23:16.462Z,87.88
2018-02-19T05:24:16.494Z,87.98
2018-02-19T05:26:09.465Z,87.88
2018-02-19T05:27:09.518Z,87.32
2018-02-19T05:29:02.531Z,87.79
2018-02-19T05:30:02.547Z,87.70
2018-02-19T05:31:55.522Z,87.41
2018-02-19T05:32:55.572Z,87.79
2018-02-19T05:34:48.567Z,87.88
2018-02-19T05:35:48.597Z,87.70
2018-02-19T05:37:41.566Z,87.41
2018-02-19T05:38:41.624Z,86.94
2018-02-19T05:40:34.615Z,87.70
2018-02-19T05:41:34.646Z,87.41
2018-02-19T05:43:27.622Z,87.55
2018-02-19T05:44:27.673Z,87.23
2018-02-19T05:46:20.664Z,87.23
2018-02-19T05:47:20.696Z,87.32
2018-02-19T05:49:13.674Z,87.60
2018-02-19T05:50:13.750Z,87.23
2018-02-19T05:52:07.230Z,87.04
2018-02-19T05:53:07.253Z,87.04
2018-02-19T05:55:00.249Z,87.41
2018-02-19T05:56:00.286Z,87.13
2018-02-19T05:57:53.258Z,87.88
2018-02-19T05:58:53.307Z,87.41
2018-02-19T06:00:46.348Z,87.88
2018-02-19T06:01:46.342Z,88.12
2018-02-19T06:03:40.275Z,88.17
2018-02-19T06:04:40.449Z,87.98
2018-02-19T06:06:33.265Z,88.64
2018-02-19T06:07:33.307Z,87.88
2018-02-19T06:09:26.268Z,88.45
2018-02-19T06:10:26.323Z,88.55
2018-02-19T06:12:19.323Z,88.64
2018-02-19T06:13:19.354Z,88.83
2018-02-19T06:15:12.336Z,88.36
2018-02-19T06:16:12.396Z,88.93
2018-02-19T06:18:05.381Z,88.93
2018-02-19T06:19:05.433Z,88.64
2018-02-19T06:20:58.376Z,88.26
2018-02-19T06:21:58.428Z,88.64
2018-02-19T06:23:51.437Z,88.36
2018-02-19T06:24:51.454Z,88.12
2018-02-19T06:26:44.445Z,88.22
2018-02-19T06:27:44.479Z,88.03
2018-02-19T06:29:37.456Z,87.55
2018-02-19T06:30:37.501Z,87.84
2018-02-19T06:32:30.508Z,86.71
2018-02-19T06:33:30.530Z,86.71
2018-02-19T06:35:23.506Z,86.52
2018-02-19T06:36:23.554Z,86.52
2018-02-19T06:38:16.551Z,86.52
2018-02-19T06:39:16.579Z,85.76
2018-02-19T06:41:09.551Z,86.61
2018-02-19T06:42:09.603Z,87.08
2018-02-19T06:44:02.598Z,87.37
2018-02-19T06:45:02.631Z,87.74
2018-02-19T06:46:55.600Z,88.07
2018-02-19T06:47:55.651Z,87.98
2018-02-19T06:49:48.652Z,88.55
2018-02-19T06:50:48.685Z,88.36
2018-02-19T06:52:41.667Z,88.93
2018-02-19T06:53:41.709Z,88.83
2018-02-19T06:55:34.700Z,89.31
2018-02-19T06:56:34.733Z,88.93
2018-02-19T06:58:27.724Z,89.40
2018-02-19T06:59:27.756Z,89.40
2018-02-19T07:01:20.748Z,89.50
2018-02-19T07:02:21.760Z,89.59
2018-02-19T07:04:13.782Z,89.59
2018-02-19T07:05:13.804Z,89.40
2018-02-19T07:07:06.784Z,89.40
2018-02-19T07:08:06.828Z,89.50
2018-02-19T07:09:59.839Z,89.59
2018-02-19T07:10:59.877Z,89.69
2018-02-19T07:12:52.890Z,89.69
2018-02-19T07:13:52.897Z,90.16
2018-02-19T07:15:45.890Z,90.25
2018-02-19T07:16:45.921Z,89.78
2018-02-19T07:18:38.904Z,89.59
2018-02-19T07:19:39.001Z,89.69
2018-02-19T07:21:31.953Z,90.44
2018-02-19T07:22:31.984Z,90.53
2018-02-19T07:24:24.951Z,90.91
2018-02-19T07:25:25.003Z,91.20
2018-02-19T07:27:17.993Z,91.39
2018-02-19T07:28:18.023Z,91.10
2018-02-19T07:30:10.999Z,91.39
2018-02-19T07:31:11.050Z,91.20
2018-02-19T07:33:04.042Z,91.48
2018-02-19T07:34:04.077Z,92.61
2018-02-19T07:35:57.069Z,91.67
2018-02-19T07:36:57.098Z,91.48
2018-02-19T07:38:50.070Z,91.77
2018-02-19T07:39:50.125Z,91.67
2018-02-19T07:41:43.117Z,91.10
2018-02-19T07:42:43.150Z,90.58
2018-02-19T07:44:36.136Z,92.57
2018-02-19T07:45:36.189Z,92.29
2018-02-19T07:47:29.182Z,92.38
2018-02-19T07:48:29.214Z,92.00
2018-02-19T07:50:22.194Z,92.19
2018-02-19T07:51:22.239Z,92.85
2018-02-19T07:53:15.234Z,93.42
2018-02-19T07:54:15.265Z,93.04
2018-02-19T07:56:08.249Z,92.76
2018-02-19T07:57:08.290Z,92.47
2018-02-19T07:59:01.285Z,93.80
2018-02-19T08:00:01.317Z,93.23
2018-02-19T08:01:54.306Z,94.65
2018-02-19T08:02:54.343Z,93.99
2018-02-19T08:04:47.340Z,93.80
2018-02-19T08:05:47.372Z,93.61
2018-02-19T08:07:40.343Z,95.07
2018-02-19T08:08:40.398Z,94.32
2018-02-19T08:10:33.393Z,94.32
2018-02-19T08:11:33.425Z,94.79
2018-02-19T08:13:26.428Z,95.07
2018-02-19T08:14:26.450Z,95.83
2018-02-19T08:16:19.431Z,95.55
2018-02-19T08:17:19.484Z,96.02
2018-02-19T08:19:12.484Z,96.02
2018-02-19T08:20:12.521Z,96.21
2018-02-19T08:22:05.496Z,95.64
2018-02-19T08:23:05.543Z,96.31
2018-02-19T08:24:58.537Z,96.69
2018-02-19T08:25:58.571Z,97.16
2018-02-19T08:27:51.550Z,96.31
2018-02-19T08:28:51.600Z,96.50
2018-02-19T08:30:44.597Z,96.59
2018-02-19T08:31:44.628Z,96.21
2018-02-19T08:33:37.625Z,97.16
2018-02-19T08:34:37.714Z,97.35
2018-02-19T08:36:30.672Z,97.16
2018-02-19T08:37:30.706Z,97.25
2018-02-19T08:39:23.684Z,96.40
2018-02-19T08:40:23.734Z,97.06
2018-02-19T08:42:16.729Z,97.25
2018-02-19T08:43:16.763Z,97.82
2018-02-19T08:45:09.738Z,97.16
2018-02-19T08:46:09.788Z,97.73
2018-02-19T08:48:02.784Z,97.63
2018-02-19T08:49:02.814Z,97.73
2018-02-19T08:50:55.824Z,98.11
2018-02-19T08:51:55.843Z,97.39
2018-02-19T08:53:48.826Z,96.83
2018-02-19T08:54:48.871Z,97.87
2018-02-19T08:56:41.867Z,96.54
2018-02-19T08:57:41.913Z,96.35
2018-02-19T08:59:34.934Z,97.58
2018-02-19T09:00:34.936Z,97.87
2018-02-19T09:02:27.932Z,97.96
2018-02-19T09:03:27.961Z,97.77
2018-02-19T09:05:20.937Z,98.30
2018-02-19T09:06:20.988Z,98.20
2018-02-19T09:08:13.984Z,97.63
2018-02-19T09:09:14.020Z,99.33
2018-02-19T09:11:06.992Z,99.24
2018-02-19T09:12:07.047Z,99.99
2018-02-19T09:14:00.042Z,99.99
2018-02-19T09:15:00.076Z,99.49
2018-02-19T09:16:53.048Z,98.87
2018-02-19T09:17:53.102Z,98.63
2018-02-19T09:19:46.102Z,98.87
2018-02-19T09:20:46.137Z,97.07
2018-02-19T09:22:39.112Z,96.22
2018-02-19T09:23:39.162Z,95.27
2018-02-19T09:25:32.673Z,95.27
2018-02-19T09:26:32.698Z,95.50
2018-02-19T09:28:25.670Z,97.40
2018-02-19T09:29:25.726Z,96.69
2018-02-19T09:31:18.723Z,96.69
2018-02-19T09:32:18.764Z,97.07
2018-02-19T09:34:11.790Z,97.45
2018-02-19T09:35:11.785Z,97.54
2018-02-19T09:37:04.767Z,98.39
2018-02-19T09:38:04.812Z,98.11
2018-02-19T09:39:57.812Z,98.21
2018-02-19T09:40:57.842Z,96.97
2018-02-19T09:42:50.837Z,98.44
2018-02-19T09:43:50.874Z,97.97
2018-02-19T09:45:43.872Z,98.35
2018-02-19T09:46:43.906Z,98.44
2018-02-19T09:48:36.889Z,97.31
2018-02-19T09:49:36.942Z,96.83
2018-02-19T09:51:29.936Z,97.59
2018-02-19T09:52:29.969Z,97.31
2018-02-19T09:54:22.944Z,98.25
2018-02-19T09:55:23.002Z,97.97
2018-02-19T09:57:15.999Z,97.88
2018-02-19T09:58:16.032Z,97.21
2018-02-19T10:00:09.007Z,97.69
2018-02-19T10:01:09.066Z,97.40
2018-02-19T10:03:02.063Z,97.02
2018-02-19T10:04:02.092Z,97.07
2018-02-19T10:05:55.120Z,96.69
2018-02-19T10:06:55.132Z,96.36
2018-02-19T10:08:48.115Z,97.31
2018-02-19T10:09:48.172Z,96.55
2018-02-19T10:11:41.162Z,96.83
2018-02-19T10:12:41.197Z,98.07
2018-02-19T10:14:34.180Z,96.73
2018-02-19T10:15:34.234Z,96.92
2018-02-19T10:17:27.225Z,95.98
2018-02-19T10:18:27.262Z,96.17
2018-02-19T10:20:20.235Z,96.17
2018-02-19T10:21:20.290Z,97.12
2018-02-19T10:23:13.305Z,95.88
2018-02-19T10:24:13.339Z,96.36
2018-02-19T10:26:06.826Z,96.36
2018-02-19T10:27:06.887Z,96.55
2018-02-19T10:28:59.879Z,95.88
2018-02-19T10:29:59.912Z,96.26
2018-02-19T10:31:52.885Z,95.98
2018-02-19T10:32:52.944Z,96.55
2018-02-19T10:34:45.939Z,96.17
2018-02-19T10:35:45.973Z,95.98
2018-02-19T10:37:38.983Z,95.98
2018-02-19T10:38:39.005Z,95.79
2018-02-19T10:40:31.990Z,96.41
2018-02-19T10:41:32.043Z,96.59
2018-02-19T10:43:25.044Z,95.07
2018-02-19T10:44:25.079Z,96.03
2018-02-19T10:46:18.052Z,95.27
2018-02-19T10:47:18.108Z,94.98
2018-02-19T10:49:11.103Z,95.65
2018-02-19T10:50:11.138Z,94.13
2018-02-19T10:52:04.116Z,95.36
2018-02-19T10:53:04.168Z,94.89
2018-02-19T10:54:57.169Z,94.51
2018-02-19T10:55:57.201Z,93.56
2018-02-19T10:57:50.184Z,94.18
2018-02-19T10:58:50.235Z,94.79
2018-02-19T11:00:43.251Z,94.60
2018-02-19T11:01:43.285Z,95.07
2018-02-19T11:03:36.261Z,94.60
2018-02-19T11:04:36.317Z,95.27
2018-02-19T11:06:29.322Z,94.79
2018-02-19T11:07:29.359Z,95.65
2018-02-19T11:09:22.331Z,94.79
2018-02-19T11:10:22.389Z,94.42
2018-02-19T11:12:15.389Z,94.60
2018-02-19T11:13:15.426Z,94.98
2018-02-19T11:15:08.422Z,94.70
2018-02-19T11:16:08.455Z,94.42
2018-02-19T11:18:01.433Z,93.94
2018-02-19T11:19:01.488Z,94.37
2018-02-19T11:20:54.490Z,93.32
2018-02-19T11:21:54.522Z,93.41
2018-02-19T11:23:47.504Z,93.37
2018-02-19T11:24:47.560Z,92.85
2018-02-19T11:26:40.559Z,92.18
2018-02-19T11:27:41.567Z,92.85
2018-02-19T11:29:33.575Z,92.94
2018-02-19T11:30:33.628Z,92.75
2018-02-19T11:32:26.624Z,91.19
2018-02-19T11:33:26.658Z,92.33
2018-02-19T11:35:19.642Z,92.23
2018-02-19T11:36:19.694Z,92.71
2018-02-19T11:38:12.697Z,94.42
2018-02-19T11:39:12.745Z,93.08
2018-02-19T11:41:05.747Z,91.47
2018-02-19T11:42:05.770Z,92.14
2018-02-19T11:43:58.743Z,90.81
2018-02-19T11:44:58.801Z,91.47
2018-02-19T11:46:51.812Z,92.42
2018-02-19T11:47:51.836Z,92.90
2018-02-19T11:49:44.812Z,91.00
2018-02-19T11:50:44.867Z,90.62
2018-02-19T11:52:37.873Z,90.71
2018-02-19T11:53:37.911Z,89.39
2018-02-19T11:55:30.890Z,90.90
2018-02-19T11:56:30.941Z,90.52
2018-02-19T11:58:23.939Z,90.81
2018-02-19T11:59:23.974Z,90.81
2018-02-19T12:01:16.956Z,91.38
2018-02-19T12:02:17.323Z,90.71
2018-02-19T12:04:10.009Z,88.34
2018-02-19T12:05:10.043Z,88.15
2018-02-19T12:07:03.056Z,89.58
2018-02-19T12:08:03.077Z,90.14
2018-02-19T12:09:56.061Z,90.81
2018-02-19T12:10:56.118Z,91.00
2018-02-19T12:12:49.136Z,90.71
2018-02-19T12:13:49.156Z,91.09
2018-02-19T12:15:42.143Z,92.14
2018-02-19T12:16:42.193Z,92.71
2018-02-19T12:18:35.196Z,93.08
2018-02-19T12:19:35.228Z,92.61
2018-02-19T12:21:28.204Z,92.04
2018-02-19T12:22:28.296Z,90.52
2018-02-19T12:24:21.263Z,91.00
2018-02-19T12:25:21.361Z,92.23
2018-02-19T12:27:14.279Z,90.43
2018-02-19T12:28:14.328Z,89.86
2018-02-19T12:30:07.330Z,90.90
2018-02-19T12:31:07.363Z,90.71
2018-02-19T12:33:00.346Z,90.71
2018-02-19T12:34:00.396Z,90.71
2018-02-19T12:35:53.503Z,91.28
2018-02-19T12:36:53.539Z,92.04
2018-02-19T12:38:46.539Z,92.23
2018-02-19T12:39:46.575Z,92.42
2018-02-19T12:41:39.694Z,91.85
2018-02-19T12:42:39.609Z,92.23
2018-02-19T12:44:32.642Z,90.81
2018-02-19T12:45:32.646Z,91.38
2018-02-19T12:47:25.665Z,91.85
2018-02-19T12:48:25.673Z,92.33
2018-02-19T12:50:18.681Z,92.14
2018-02-19T12:51:18.706Z,91.94
2018-02-19T12:53:11.756Z,92.33
2018-02-19T12:54:11.739Z,88.91
2018-02-19T12:56:04.738Z,91.33
2018-02-19T12:57:04.772Z,89.24
2018-02-19T12:58:57.757Z,89.05
2018-02-19T12:59:57.829Z,89.76
2018-02-19T13:01:50.831Z,88.57
2018-02-19T13:02:50.838Z,89.67
2018-02-19T13:04:43.837Z,88.62
2018-02-19T13:05:43.894Z,89.29
2018-02-19T13:07:36.903Z,89.62
2018-02-19T13:08:37.112Z,86.96
2018-02-19T13:10:29.947Z,88.29
2018-02-19T13:11:29.982Z,88.20
2018-02-19T13:13:23.264Z,83.45
2018-02-19T13:14:23.185Z,84.40
2018-02-19T13:16:16.376Z,86.77
2018-02-19T13:17:16.218Z,85.25
2018-02-19T13:19:09.363Z,87.34
2018-02-19T13:20:09.241Z,86.01
2018-02-19T13:22:02.311Z,84.97
2018-02-19T13:23:02.441Z,84.30
2018-02-19T13:24:55.479Z,83.83
2018-02-19T13:25:55.341Z,84.11
2018-02-19T13:27:48.294Z,81.55
2018-02-19T13:28:48.209Z,82.88
2018-02-19T13:30:41.419Z,81.17
2018-02-19T13:31:41.286Z,81.45
2018-02-19T13:33:34.240Z,81.74
2018-02-19T13:34:34.248Z,80.88
2018-02-19T13:36:27.298Z,82.97
2018-02-19T13:37:27.283Z,83.16
2018-02-19T13:39:20.341Z,84.44
2018-02-19T13:40:20.336Z,82.35
2018-02-19T13:42:13.335Z,80.79
2018-02-19T13:43:13.370Z,80.69
2018-02-19T13:45:06.345Z,80.51
2018-02-19T13:46:06.402Z,81.17
2018-02-19T13:47:59.400Z,82.40
2018-02-19T13:48:59.435Z,81.17
2018-02-19T13:50:52.419Z,82.03
2018-02-19T13:51:52.476Z,83.64
2018-02-19T13:53:45.483Z,82.03
2018-02-19T13:54:45.524Z,81.93
2018-02-19T13:56:38.540Z,81.55
2018-02-19T13:57:38.562Z,81.93
2018-02-19T13:59:31.552Z,82.69
2018-02-19T14:00:31.597Z,82.21
2018-02-19T14:02:24.609Z,81.36
2018-02-19T14:03:24.633Z,80.69
2018-02-19T14:05:17.624Z,78.23
2018-02-19T14:06:17.673Z,78.42
2018-02-19T14:08:10.722Z,81.17
2018-02-19T14:09:10.711Z,79.84
2018-02-19T14:11:03.702Z,79.74
2018-02-19T14:12:03.762Z,82.21
2018-02-19T14:13:56.744Z,82.40
2018-02-19T14:14:56.780Z,81.93
2018-02-19T14:16:49.777Z,81.26
2018-02-19T14:17:49.815Z,79.74
2018-02-19T14:19:42.875Z,78.89
2018-02-19T14:20:42.856Z,80.69
2018-02-19T14:22:35.884Z,78.89
2018-02-19T14:23:35.889Z,79.94
2018-02-19T14:25:29.443Z,77.28
2018-02-19T14:26:29.433Z,77.28
2018-02-19T14:28:22.434Z,75.57
2018-02-19T14:29:22.468Z,76.23
2018-02-19T14:31:15.466Z,81.36
2018-02-19T14:32:15.502Z,79.84
2018-02-19T14:34:08.501Z,79.36
2018-02-19T14:35:08.536Z,81.55
2018-02-19T14:37:01.534Z,76.23
2018-02-19T14:38:01.592Z,74.81
2018-02-19T14:39:54.606Z,77.94
2018-02-19T14:40:54.629Z,77.18
2018-02-19T14:42:47.618Z,78.23
2018-02-19T14:43:47.666Z,77.37
2018-02-19T14:45:40.662Z,78.42
2018-02-19T14:46:40.696Z,77.56
2018-02-19T14:48:33.683Z,77.09
2018-02-19T14:49:33.738Z,79.94
2018-02-19T14:51:26.779Z,78.89
2018-02-19T14:52:26.775Z,78.70
2018-02-19T14:54:19.757Z,79.94
2018-02-19T14:55:19.828Z,80.13
2018-02-19T14:57:12.861Z,79.46
2018-02-19T14:58:12.840Z,79.74
2018-02-19T15:00:05.820Z,80.41
2018-02-19T15:01:05.895Z,79.84
2018-02-19T15:02:58.878Z,80.51
2018-02-19T15:03:58.911Z,79.65
2018-02-19T15:05:51.912Z,78.70
2018-02-19T15:06:51.948Z,80.32
2018-02-19T15:08:44.950Z,79.84
2018-02-19T15:09:44.987Z,78.99
2018-02-19T15:11:38.008Z,81.36
2018-02-19T15:12:38.052Z,80.60
2018-02-19T15:14:31.013Z,80.13
2018-02-19T15:15:31.049Z,79.94
2018-02-19T15:17:24.067Z,81.45
2018-02-19T15:18:24.084Z,80.75
2018-02-19T15:20:17.070Z,81.32
2018-02-19T15:21:17.122Z,80.56
2018-02-19T15:23:10.138Z,78.38
2018-02-19T15:24:10.160Z,78.95
2018-02-19T15:26:03.652Z,77.24
2018-02-19T15:27:03.698Z,77.81
2018-02-19T15:28:56.706Z,78.38
2018-02-19T15:29:56.756Z,79.61
2018-02-19T15:31:50.235Z,80.37
2018-02-19T15:32:50.281Z,80.46
2018-02-19T15:34:43.279Z,77.62
2018-02-19T15:35:43.314Z,77.24
2018-02-19T15:37:36.292Z,78.66
2018-02-19T15:38:36.351Z,79.33
2018-02-19T15:40:29.354Z,79.71
2018-02-19T15:41:29.395Z,80.27
2018-02-19T15:43:22.445Z,80.46
2018-02-19T15:44:22.455Z,81.04
2018-02-19T15:46:15.433Z,81.79
2018-02-19T15:47:15.486Z,81.88
2018-02-19T15:49:08.505Z,82.84
2018-02-19T15:50:08.521Z,82.32
2018-02-19T15:52:01.505Z,83.59
2018-02-19T15:53:01.552Z,83.50
2018-02-19T15:54:54.559Z,82.93
2018-02-19T15:55:54.594Z,82.89
2018-02-19T15:57:47.567Z,82.65
2018-02-19T15:58:47.623Z,82.65
2018-02-19T16:00:40.623Z,84.45
2018-02-19T16:01:40.658Z,83.08
2018-02-19T16:03:33.636Z,83.74
2018-02-19T16:04:33.693Z,85.07
2018-02-19T16:06:26.699Z,87.20
2018-02-19T16:07:26.738Z,88.01
2018-02-19T16:09:19.718Z,88.39
2018-02-19T16:10:19.775Z,89.34
2018-02-19T16:12:12.773Z,89.25
2018-02-19T16:13:12.808Z,90.57
2018-02-19T16:15:05.788Z,90.57
2018-02-19T16:16:05.846Z,91.24
2018-02-19T16:17:58.838Z,91.71
2018-02-19T16:18:58.874Z,91.33
2018-02-19T16:20:51.892Z,91.80
2018-02-19T16:21:51.912Z,92.57
2018-02-19T16:23:45.062Z,92.38
2018-02-19T16:24:44.996Z,92.85
2018-02-19T16:26:38.381Z,92.18
2018-02-19T16:27:38.055Z,92.47
2018-02-19T16:29:31.058Z,92.38
2018-02-19T16:30:31.366Z,92.94
2018-02-19T16:32:24.541Z,92.76
2018-02-19T16:33:24.568Z,92.38
2018-02-19T16:35:17.543Z,93.04
2018-02-19T16:36:17.596Z,93.89
2018-02-19T16:38:10.599Z,93.41
2018-02-19T16:39:10.819Z,93.80
2018-02-19T16:41:03.612Z,93.61
2018-02-19T16:42:03.663Z,93.99
2018-02-19T16:43:56.663Z,93.80
2018-02-19T16:44:56.705Z,93.94
2018-02-19T16:46:49.738Z,94.08
2018-02-19T16:47:49.777Z,94.23
2018-02-19T16:49:42.806Z,94.32
2018-02-19T16:50:42.770Z,94.51
2018-02-19T16:52:35.822Z,94.32
2018-02-19T16:53:35.821Z,94.60
2018-02-19T16:55:28.792Z,94.42
2018-02-19T16:56:28.856Z,94.42
2018-02-19T16:58:21.855Z,94.42
2018-02-19T16:59:21.890Z,94.60
2018-02-19T17:01:14.861Z,94.70
2018-02-19T17:02:14.918Z,94.70
2018-02-19T17:04:07.986Z,94.89
2018-02-19T17:05:07.947Z,94.60
2018-02-19T17:07:00.923Z,95.26
2018-02-19T17:08:01.013Z,94.70
2018-02-19T17:09:54.035Z,95.07
2018-02-19T17:10:54.037Z,94.51
2018-02-19T17:12:46.990Z,94.42
2018-02-19T17:13:47.041Z,94.70
2018-02-19T17:15:40.099Z,95.55
2018-02-19T17:16:40.074Z,95.26
2018-02-19T17:18:33.233Z,94.89
2018-02-19T17:19:33.164Z,95.26
2018-02-19T17:21:26.130Z,95.26
2018-02-19T17:22:26.147Z,95.55
2018-02-19T17:24:19.147Z,95.17
2018-02-19T17:25:19.178Z,94.98
2018-02-19T17:27:12.151Z,95.36
2018-02-19T17:28:12.197Z,95.65
2018-02-19T17:30:05.193Z,95.55
2018-02-19T17:31:05.245Z,95.45
2018-02-19T17:32:58.219Z,95.74
2018-02-19T17:33:58.261Z,96.03
2018-02-19T17:35:51.498Z,95.74
2018-02-19T17:36:51.531Z,95.65
2018-02-19T17:38:44.508Z,95.84
2018-02-19T17:39:44.564Z,95.55
2018-02-19T17:41:37.562Z,95.65
2018-02-19T17:42:37.594Z,95.65
2018-02-19T17:44:30.589Z,95.45
2018-02-19T17:45:30.648Z,95.74
2018-02-19T17:47:23.644Z,96.41
2018-02-19T17:48:23.679Z,95.55
2018-02-19T17:50:16.660Z,96.41
2018-02-19T17:51:16.750Z,95.84
2018-02-19T17:53:09.756Z,96.03
2018-02-19T17:54:09.742Z,95.84
2018-02-19T17:56:02.761Z,95.93
2018-02-19T17:57:02.774Z,95.74
2018-02-19T17:58:55.747Z,96.59
2018-02-19T17:59:55.801Z,96.03
2018-02-19T18:01:48.816Z,96.12
2018-02-19T18:02:48.834Z,96.12
2018-02-19T18:04:41.811Z,96.03
2018-02-19T18:05:41.924Z,96.12
2018-02-19T18:07:34.893Z,95.84
2018-02-19T18:08:34.899Z,96.41
2018-02-19T18:10:27.871Z,96.12
2018-02-19T18:11:27.926Z,96.50
2018-02-19T18:13:20.934Z,95.74
2018-02-19T18:14:20.962Z,95.93
2018-02-19T18:16:13.937Z,96.31
2018-02-19T18:17:14.021Z,96.50
2018-02-19T18:19:07.023Z,95.84
2018-02-19T18:20:07.048Z,96.41
2018-02-19T18:21:59.997Z,96.12
2018-02-19T18:23:00.055Z,96.31
2018-02-19T18:24:53.053Z,96.41
2018-02-19T18:25:53.087Z,96.31
2018-02-19T18:27:46.086Z,96.03
2018-02-19T18:28:46.118Z,96.22
2018-02-19T18:30:39.115Z,96.22
2018-02-19T18:31:39.149Z,96.12
2018-02-19T18:33:32.129Z,96.12